Tropical Cyclones
[Index]
Main Index Home Page Stock Weather Photos Extreme Storms Discussion Storm News and Storm Chasing Reports Tropical Cyclones / Hurricanes / Typhoons Weather Data and Links Wild Fires / Bushfires Weather Observation Techniques Weather Picture Catalogue Tornado Pictures and Reports Stock Video Footage and DVDs for sale
Season 2015-2016 Tropical Cyclone EMERAUDE Track Map
Season 2015-2016 Summaries: [BoM-AU] [JTWC-AU] [JTWC-SIO] [JTWC-SPAC] [JTWC-SH]
<<- Previous TC | JTWC 2015-2016 Season | Next TC ->>

click for intensity scale information  Lat/long Grid: Show Hide

 Date Labels: Show Hide

Joint Typhoon Warning Centre Cyclone Data

Name: EMERAUDE

15 Mar 2016 06:00 UTC to 21 Mar 2016 12:00 UTC

    date/time    lat    long     hPa   cat  kts
2016-03-15 06   11.3    86.8    1004         25          
2016-03-15 12   11.3    86.3    1000         30          
2016-03-15 18   11.2    85.8     993    1    40          
2016-03-16 00   11.0    85.3     982    2    55          
2016-03-16 00   11.0    85.3     982    2    55          
2016-03-16 06   10.8    85.0     974    2    65          
2016-03-16 06   10.8    85.0     974    2    65          
2016-03-16 12   10.6    84.7     967    3    75          
2016-03-16 12   10.6    84.7     967    3    75          
2016-03-16 12   10.6    84.7     967    3    75          
2016-03-16 18   10.5    84.5     956    3    90          
2016-03-16 18   10.5    84.5     956    3    90          
2016-03-16 18   10.5    84.5     956    3    90          
2016-03-17 00   10.4    84.3     944    4   105          
2016-03-17 00   10.4    84.3     944    4   105          
2016-03-17 00   10.4    84.3     944    4   105          
2016-03-17 06   10.5    84.1     929    5   125          
2016-03-17 06   10.5    84.1     929    5   125          
2016-03-17 06   10.5    84.1     929    5   125          
2016-03-17 12   10.7    84.0     937    4   115          
2016-03-17 12   10.7    84.0     937    4   115          
2016-03-17 12   10.7    84.0     937    4   115          
2016-03-17 18   10.5    83.9     944    4   105          
2016-03-17 18   10.5    83.9     944    4   105          
2016-03-17 18   10.5    83.9     944    4   105          
2016-03-17 21   10.2    84.0     952    3    95          
2016-03-17 21   10.2    84.0     952    3    95          
2016-03-17 21   10.2    84.0     952    3    95          
2016-03-18 00   10.1    84.2     956    3    90          
2016-03-18 00   10.1    84.2     956    3    90          
2016-03-18 00   10.1    84.2     956    3    90          
2016-03-18 06   10.1    84.9     963    3    80          
2016-03-18 06   10.1    84.9     963    3    80          
2016-03-18 06   10.1    84.9     963    3    80          
2016-03-18 12   10.3    85.4     974    2    65          
2016-03-18 12   10.3    85.4     974    2    65          
2016-03-18 18   10.3    85.9     978    2    60          
2016-03-18 18   10.3    85.9     978    2    60          
2016-03-19 00   10.4    86.5     974    2    65          
2016-03-19 00   10.4    86.5     974    2    65          
2016-03-19 06   10.5    86.9     970    2    70          
2016-03-19 06   10.5    86.9     970    2    70          
2016-03-19 06   10.5    86.9     970    2    70          
2016-03-19 12   10.7    87.2     967    3    75          
2016-03-19 12   10.7    87.2     967    3    75          
2016-03-19 12   10.7    87.2     967    3    75          
2016-03-19 18   10.7    87.4     967    3    75          
2016-03-19 18   10.7    87.4     967    3    75          
2016-03-19 18   10.7    87.4     967    3    75          
2016-03-20 00   10.7    87.5     974    2    65          
2016-03-20 00   10.7    87.5     974    2    65          
2016-03-20 00   10.7    87.5     974    2    65          
2016-03-20 06   10.6    87.4     982    2    55          
2016-03-20 06   10.6    87.4     982    2    55          
2016-03-20 12   10.8    87.3     985    1    50          
2016-03-20 12   10.8    87.3     985    1    50          
2016-03-20 18   11.1    87.3     989    1    45          
2016-03-21 00   11.4    87.2     993    1    40          
2016-03-21 06   11.6    86.9     996         35          
2016-03-21 12   11.7    86.6    1004         25          
Winds are 1-min average.

Tropical cyclone tracks developed by Michael Bath using data from the Joint Typhoon Warning Centre Best Tracks and Google Maps.


[Australian Severe Weather index] [Copyright Notice] [Email Contacts] [Search This Site] [Privacy Policy]
Document: tropical_cyclone_emeraude.htm Updated: 28 June 2017